• Join FlightAware (Why Join?)
  • Login
  • US Flag 
03:19PM EST


 

Airport Tracker/Info


-or-


 

Live Flight TrackerFlight Track Log ✈ EJA328 ✈ 23-Mar-2014 ✈ KUDD - KSMF

Flight Track Log - Related Links

Times and Time Zones

All times are in EDT time to prevent confusion due to time zone crossing. See the EJA328 flight status page for this flight to view local times or setup timezone preferences in your user account.

Time Position Orientation Groundspeed Altitude Reporting Facility
EDT Latitude Longitude Course Direction KTS MPH feet Rate Location/Type
08:06PM 33.9981 -116.4266 323° Northwest 373 429 16,900  Level FlightAware ADS-B (KBNG)
08:07PM 34.0555 -116.4780 323° Northwest 374 430 18,700 2,940 Climbing FlightAware ADS-B (KBNG)
08:08PM 34.1123 -116.5240 336° Northwest 376 433 20,600 2,820 Climbing FlightAware ADS-B (KBNG)
08:08PM 34.1669 -116.5454 342° North 381 438 22,100 1,980 Climbing FlightAware ADS-B (KBNG)
08:09PM 34.2202 -116.5667 342° North 399 459 22,700 780 Climbing FlightAware ADS-B (KBNG)
08:09PM 34.2899 -116.5944 342° North 427 491 23,000 180 Climbing FlightAware ADS-B (KBNG)
08:10PM 34.3839 -116.6314 342° North 424 488 23,000 60 Level FlightAware ADS-B
08:11PM 34.4305 -116.6548 330° Northwest 416 479 23,100 720 Climbing FlightAware ADS-B
08:11PM 34.4606 -116.6869 312° West 414 476 23,600 -180 Climbing FlightAware ADS-B
08:11PM 34.4723 -116.7061 300° West 411 473 23,000 1,560 Descending FlightAware ADS-B (KBNG)
08:12PM 34.4932 -116.7710 281° West 406 467 24,700 2,760 Climbing FlightAware ADS-B
08:12PM 34.4947 -116.8175 266° West 404 465 25,300 1,260 Climbing FlightAware ADS-B
08:13PM 34.4894 -116.9091 267° West 413 475 26,000 960 Climbing FlightAware ADS-B
08:14PM 34.4773 -117.1374 266° West 416 479 27,600 840 Climbing FlightAware ADS-B
08:15PM 34.4707 -117.2499 266° West 423 487 28,100 1,080 Climbing FlightAware ADS-B
08:16PM 34.4684 -117.3530 277° West 418 481 29,300 1,440 Climbing FlightAware ADS-B
08:17PM 34.5135 -117.4864 306° West 425 489 30,700 1,440 Climbing FlightAware ADS-B
08:17PM 34.5561 -117.5390 322° Northwest 431 496 31,600 1,440 Climbing FlightAware ADS-B
08:18PM 34.6025 -117.5819 322° Northwest 427 491 32,200 1,380 Climbing FlightAware ADS-B
08:18PM 34.6554 -117.6326 322° Northwest 424 488 33,100 1,320 Climbing FlightAware ADS-B
08:19PM 34.7261 -117.6998 322° Northwest 422 486 34,000 600 Climbing FlightAware ADS-B
08:20PM 34.7883 -117.7588 322° Northwest 419 482 34,000  Level FlightAware ADS-B
08:20PM 34.8419 -117.8096 322° Northwest 417 480 34,000  Level FlightAware ADS-B
08:21PM 34.9119 -117.8762 322° Northwest 415 478 34,000  Level FlightAware ADS-B
08:22PM 34.9808 -117.9418 322° Northwest 415 478 34,000  Level FlightAware ADS-B
08:23PM 35.0369 -117.9953 322° Northwest 415 478 34,000  Level FlightAware ADS-B
08:23PM 35.1081 -118.0634 322° Northwest 415 478 34,000  Level FlightAware ADS-B
08:24PM 35.1698 -118.1227 322° Northwest 417 480 34,000  Level FlightAware ADS-B
08:25PM 35.2231 -118.1738 322° Northwest 417 480 34,000  Level FlightAware ADS-B
08:25PM 35.2922 -118.2403 322° Northwest 418 481 34,000  Level FlightAware ADS-B
08:26PM 35.3557 -118.3015 322° Northwest 419 482 34,000  Level FlightAware ADS-B
08:27PM 35.4077 -118.3518 322° Northwest 421 484 34,000  Level FlightAware ADS-B
08:28PM 35.5411 -118.4809 322° Northwest 421 484 34,000  Level FlightAware ADS-B
08:29PM 35.6005 -118.5387 322° Northwest 421 484 34,000  Level FlightAware ADS-B
08:30PM 35.6996 -118.6353 322° Northwest 419 482 34,000  Level FlightAware ADS-B
08:31PM 35.7684 -118.7025 321° Northwest 413 475 34,000  Level FlightAware ADS-B
08:31PM 35.8282 -118.7610 321° Northwest 411 473 34,000  Level FlightAware ADS-B
08:32PM 35.9208 -118.8519 321° Northwest 407 468 34,000  Level FlightAware ADS-B
08:33PM 35.9616 -118.8921 321° Northwest 406 467 34,000  Level FlightAware ADS-B
08:34PM 36.0332 -118.9628 321° Northwest 404 465 34,000  Level FlightAware ADS-B
08:34PM 36.0906 -119.0197 321° Northwest 408 470 34,000  Level Oakland Center
08:35PM 36.1778 -119.1061 321° Northwest 406 467 34,000  Level Oakland Center
08:36PM 36.2625 -119.1903 321° Northwest 399 459 34,000  Level Oakland Center
08:37PM 36.3478 -119.2756 321° Northwest 395 455 34,000  Level Oakland Center
08:38PM 36.4347 -119.3625 321° Northwest 401 461 34,000  Level Oakland Center
08:39PM 36.5378 -119.4647 321° Northwest 397 457 34,000  Level Oakland Center
08:45PM 37.0296 -119.9577 321° Northwest 407 468 34,000 -840 Level FlightAware ADS-B
08:48PM 37.3092 -120.2338 321° Northwest 427 491 27,000 -2,460 Descending FlightAware ADS-B
08:49PM 37.3727 -120.2970 321° Northwest 427 491 25,000 -2,940 Descending FlightAware ADS-B
08:49PM 37.4345 -120.3585 321° Northwest 427 491 23,100 -2,640 Descending FlightAware ADS-B
08:50PM 37.4937 -120.4175 321° Northwest 422 486 21,500 -2,040 Descending FlightAware ADS-B
08:52PM 37.6104 -120.5343 321° Northwest 415 478 19,000 -1,800 Descending FlightAware ADS-B
08:52PM 37.6715 -120.5957 321° Northwest 414 476 18,000 -1,200 Descending FlightAware ADS-B
08:53PM 37.7350 -120.6596 321° Northwest 402 463 17,400 -1,860 Descending FlightAware ADS-B
08:53PM 37.7682 -120.6930 321° Northwest 397 457 16,500 -2,520 Descending FlightAware ADS-B
08:54PM 37.8169 -120.7420 321° Northwest 393 452 15,600 -1,500 Descending FlightAware ADS-B
08:54PM 37.8600 -120.7860 321° Northwest 388 447 14,900 -360 Descending FlightAware ADS-B
08:54PM 37.8500 -120.7757 321° Northwest 389 448 15,400 -660 Climbing FlightAware ADS-B
08:55PM 37.9021 -120.8285 321° Northwest 386 444 14,400 -1,320 Descending FlightAware ADS-B
08:55PM 37.9602 -120.8874 321° Northwest 387 445 13,700 -1,020 Descending FlightAware ADS-B
08:56PM 38.0167 -120.9448 321° Northwest 382 440 13,100 -1,020 Descending FlightAware ADS-B
08:57PM 38.0720 -121.0017 318° Northwest 370 426 12,400 -1,140 Descending FlightAware ADS-B
08:58PM 38.1172 -121.0671 310° West 354 407 11,600 -1,440 Descending FlightAware ADS-B
08:58PM 38.1599 -121.1296 310° West 320 368 10,500 -1,620 Descending FlightAware ADS-B
08:59PM 38.1949 -121.1813 310° West 293 337 9,500 -1,500 Descending FlightAware ADS-B
08:59PM 38.2124 -121.2072 310° West 288 331 9,000 -1,500 Descending FlightAware ADS-B
09:00PM 38.2284 -121.2310 310° West 284 327 8,500 -1,440 Descending FlightAware ADS-B
09:00PM 38.2451 -121.2557 310° West 280 322 8,100 -1,560 Descending FlightAware ADS-B
09:00PM 38.2605 -121.2786 310° West 278 320 7,500 -1,500 Descending FlightAware ADS-B
09:00PM 38.2805 -121.3083 310° West 280 322 7,100 -1,500 Descending FlightAware ADS-B
09:01PM 38.2981 -121.3344 310° West 278 320 6,500 -1,620 Descending FlightAware ADS-B
09:01PM 38.3149 -121.3594 310° West 277 319 6,000 -1,500 Descending FlightAware ADS-B
09:02PM 38.3314 -121.3840 310° West 274 315 5,500 -1,320 Descending FlightAware ADS-B
09:02PM 38.3469 -121.4072 310° West 261 300 5,200 -1,080 Descending FlightAware ADS-B
09:02PM 38.3643 -121.4331 310° West 260 299 4,800 -900 Descending FlightAware ADS-B
09:03PM 38.3792 -121.4552 310° West 261 300 4,600 -780 Descending FlightAware ADS-B
09:03PM 38.3950 -121.4787 310° West 262 302 4,300 -660 Descending FlightAware ADS-B
09:03PM 38.4087 -121.4991 310° West 258 297 4,200 -180 Descending FlightAware ADS-B
09:04PM 38.4259 -121.5249 310° West 256 295 4,200  Level FlightAware ADS-B
09:04PM 38.4414 -121.5475 314° West 253 291 4,200  Level FlightAware ADS-B
09:05PM 38.4836 -121.5717 345° North 245 282 4,200 -420 Level FlightAware ADS-B
09:05PM 38.5053 -121.5789 345° North 226 260 3,800 -1,380 Descending FlightAware ADS-B
09:05PM 38.5253 -121.5854 345° North 219 252 3,300 -1,440 Descending FlightAware ADS-B
09:05PM 38.5424 -121.5911 345° North 216 249 2,900 -1,500 Descending FlightAware ADS-B
09:06PM 38.5640 -121.5982 345° North 213 245 2,300 -1,200 Descending FlightAware ADS-B
09:06PM 38.5820 -121.6036 353° North 198 228 2,100 -780 Descending FlightAware ADS-B
09:07PM 38.6150 -121.6025 360° North 154 177 1,600 -840 Descending FlightAware ADS-B
09:07PM 38.6274 -121.6024 360° North 133 153 1,300 -780 Descending FlightAware ADS-B
09:08PM 38.6401 -121.6022 360° North 120 138 1,100 -600 Descending FlightAware ADS-B
09:08PM 38.6493 -121.6020 360° North 116 133 900 -600 Descending FlightAware ADS-B
09:08PM 38.6614 -121.6019 360° North 119 137 700 -600 Descending FlightAware ADS-B
09:09PM 38.6727 -121.6018 360° North 117 135 500 -600 Descending FlightAware ADS-B
09:17PM 38.6833 -121.5833 46° Northeast  Level FlightAware Approximate
09:18PM 38.6954 -121.5908 46° Northeast  Level Estimated